sensor_id;sensor_type;location;lat;lon;timestamp;pressure;altitude;pressure_sealevel;temperature;humidity
62025;BME280;47978;49.118;12.146;2023-03-21T00:03:51;97680.34;;;6.56;93.23
62025;BME280;47978;49.118;12.146;2023-03-21T00:07:54;97678.97;;;6.59;93.01
62025;BME280;47978;49.118;12.146;2023-03-21T00:11:55;97675.09;;;6.65;93.13
62025;BME280;47978;49.118;12.146;2023-03-21T00:15:56;97674.56;;;6.68;92.85
62025;BME280;47978;49.118;12.146;2023-03-21T00:20:10;97670.44;;;6.65;92.96
62025;BME280;47978;49.118;12.146;2023-03-21T00:24:13;97669.88;;;6.68;92.82
62025;BME280;47978;49.118;12.146;2023-03-21T00:28:14;97672.63;;;6.68;92.72
62025;BME280;47978;49.118;12.146;2023-03-21T00:32:16;97668.25;;;6.57;92.65
62025;BME280;47978;49.118;12.146;2023-03-21T00:36:17;97664.13;;;6.60;92.56
62025;BME280;47978;49.118;12.146;2023-03-21T00:40:20;97665.50;;;6.52;92.62
62025;BME280;47978;49.118;12.146;2023-03-21T00:44:31;97664.94;;;6.60;92.20
62025;BME280;47978;49.118;12.146;2023-03-21T00:48:32;97655.34;;;6.58;92.23
62025;BME280;47978;49.118;12.146;2023-03-21T00:52:34;97650.09;;;6.46;93.41
62025;BME280;47978;49.118;12.146;2023-03-21T00:56:42;97644.63;;;6.56;93.10
62025;BME280;47978;49.118;12.146;2023-03-21T01:00:44;97642.16;;;6.55;93.19
62025;BME280;47978;49.118;12.146;2023-03-21T01:04:46;97643.81;;;6.61;92.83
62025;BME280;47978;49.118;12.146;2023-03-21T01:08:47;97643.25;;;6.64;92.87
62025;BME280;47978;49.118;12.146;2023-03-21T01:12:54;97641.56;;;6.63;92.93
62025;BME280;47978;49.118;12.146;2023-03-21T01:16:56;97641.06;;;6.50;93.57
62025;BME280;47978;49.118;12.146;2023-03-21T01:20:58;97647.38;;;6.51;93.58
62025;BME280;47978;49.118;12.146;2023-03-21T01:24:59;97646.00;;;6.48;94.09
62025;BME280;47978;49.118;12.146;2023-03-21T01:29:22;97640.50;;;6.53;94.00
62025;BME280;47978;49.118;12.146;2023-03-21T01:33:23;97635.81;;;6.54;93.95
62025;BME280;47978;49.118;12.146;2023-03-21T01:37:24;97635.00;;;6.59;93.75
62025;BME280;47978;49.118;12.146;2023-03-21T01:41:26;97624.28;;;6.67;93.68
62025;BME280;47978;49.118;12.146;2023-03-21T01:50:10;97624.28;;;6.78;93.12
62025;BME280;47978;49.118;12.146;2023-03-21T01:54:12;97623.72;;;6.75;93.21
62025;BME280;47978;49.118;12.146;2023-03-21T01:58:15;97629.47;;;6.74;93.42
62025;BME280;47978;49.118;12.146;2023-03-21T02:02:18;97625.09;;;6.78;92.96
62025;BME280;47978;49.118;12.146;2023-03-21T02:06:24;97622.59;;;6.82;93.04
62025;BME280;47978;49.118;12.146;2023-03-21T02:10:28;97623.41;;;6.87;92.88
62025;BME280;47978;49.118;12.146;2023-03-21T02:14:33;97611.59;;;6.82;92.78
62025;BME280;47978;49.118;12.146;2023-03-21T02:18:36;97611.03;;;6.80;93.29
62025;BME280;47978;49.118;12.146;2023-03-21T02:27:09;97601.41;;;6.87;93.24
62025;BME280;47978;49.118;12.146;2023-03-21T02:31:23;97606.66;;;6.84;93.24
62025;BME280;47978;49.118;12.146;2023-03-21T02:35:32;97605.84;;;6.78;93.31
62025;BME280;47978;49.118;12.146;2023-03-21T02:39:50;97611.03;;;6.80;93.21
62025;BME280;47978;49.118;12.146;2023-03-21T02:43:55;97605.00;;;6.83;93.16
62025;BME280;47978;49.118;12.146;2023-03-21T02:48:00;97605.25;;;6.91;92.68
62025;BME280;47978;49.118;12.146;2023-03-21T02:52:04;97604.72;;;6.79;93.02
62025;BME280;47978;49.118;12.146;2023-03-21T02:56:22;97604.19;;;6.77;93.03
62025;BME280;47978;49.118;12.146;2023-03-21T03:00:25;97600.84;;;6.90;92.56
62025;BME280;47978;49.118;12.146;2023-03-21T03:04:27;97605.84;;;6.73;93.12
62025;BME280;47978;49.118;12.146;2023-03-21T03:08:31;97592.94;;;6.68;93.17
62025;BME280;47978;49.118;12.146;2023-03-21T03:12:52;97605.84;;;6.73;92.60
62025;BME280;47978;49.118;12.146;2023-03-21T03:16:58;97604.47;;;6.70;93.01
62025;BME280;47978;49.118;12.146;2023-03-21T03:21:05;97605.03;;;6.62;93.10
62025;BME280;47978;49.118;12.146;2023-03-21T03:25:09;97608.59;;;6.68;92.99
62025;BME280;47978;49.118;12.146;2023-03-21T03:29:27;97599.28;;;6.69;93.00
62025;BME280;47978;49.118;12.146;2023-03-21T03:33:29;97599.81;;;6.71;92.88
62025;BME280;47978;49.118;12.146;2023-03-21T03:37:32;97602.56;;;6.66;93.16
62025;BME280;47978;49.118;12.146;2023-03-21T03:41:36;97601.16;;;6.84;92.54
62025;BME280;47978;49.118;12.146;2023-03-21T03:46:04;97603.94;;;6.73;92.59
62025;BME280;47978;49.118;12.146;2023-03-21T03:50:10;97599.28;;;6.69;92.71
62025;BME280;47978;49.118;12.146;2023-03-21T03:54:15;97592.94;;;6.73;92.26
62025;BME280;47978;49.118;12.146;2023-03-21T03:58:19;97608.59;;;6.63;92.71
62025;BME280;47978;49.118;12.146;2023-03-21T04:02:27;97604.22;;;6.51;93.08
62025;BME280;47978;49.118;12.146;2023-03-21T04:06:28;97601.22;;;6.63;92.63
62025;BME280;47978;49.118;12.146;2023-03-21T04:10:30;97601.22;;;6.63;92.50
62025;BME280;47978;49.118;12.146;2023-03-21T04:14:31;97595.97;;;6.62;92.48
62025;BME280;47978;49.118;12.146;2023-03-21T04:18:47;97588.28;;;6.64;92.39
62025;BME280;47978;49.118;12.146;2023-03-21T04:22:48;97591.31;;;6.57;92.92
62025;BME280;47978;49.118;12.146;2023-03-21T04:26:49;97602.03;;;6.48;93.26
62025;BME280;47978;49.118;12.146;2023-03-21T04:30:51;97607.53;;;6.53;93.23
62025;BME280;47978;49.118;12.146;2023-03-21T04:35:07;97599.28;;;6.53;93.31
62025;BME280;47978;49.118;12.146;2023-03-21T04:39:09;97599.84;;;6.45;93.42
62025;BME280;47978;49.118;12.146;2023-03-21T04:43:10;97597.09;;;6.56;93.59
62025;BME280;47978;49.118;12.146;2023-03-21T04:47:12;97599.84;;;6.50;93.39
62025;BME280;47978;49.118;12.146;2023-03-21T04:51:14;97599.28;;;6.59;93.30
62025;BME280;47978;49.118;12.146;2023-03-21T04:55:16;97598.72;;;6.62;93.14
62025;BME280;47978;49.118;12.146;2023-03-21T04:59:17;97597.09;;;6.50;93.36
62025;BME280;47978;49.118;12.146;2023-03-21T05:03:19;97602.59;;;6.45;93.49
62025;BME280;47978;49.118;12.146;2023-03-21T05:07:21;97598.22;;;6.49;93.35
62025;BME280;47978;49.118;12.146;2023-03-21T05:11:23;97596.03;;;6.36;93.61
62025;BME280;47978;49.118;12.146;2023-03-21T05:15:24;97586.66;;;6.37;93.22
62025;BME280;47978;49.118;12.146;2023-03-21T05:19:26;97595.47;;;6.34;93.47
62025;BME280;47978;49.118;12.146;2023-03-21T05:23:29;97597.41;;;6.34;93.21
62025;BME280;47978;49.118;12.146;2023-03-21T05:27:31;97599.59;;;6.42;92.97
62025;BME280;47978;49.118;12.146;2023-03-21T05:31:32;97602.59;;;6.40;92.73
62025;BME280;47978;49.118;12.146;2023-03-21T05:35:34;97602.06;;;6.43;92.20
62025;BME280;47978;49.118;12.146;2023-03-21T05:39:37;97598.78;;;6.41;91.92
62025;BME280;47978;49.118;12.146;2023-03-21T05:43:39;97598.22;;;6.49;91.62
62025;BME280;47978;49.118;12.146;2023-03-21T05:47:40;97596.28;;;6.50;91.13
62025;BME280;47978;49.118;12.146;2023-03-21T05:51:41;97603.72;;;6.44;91.72
62025;BME280;47978;49.118;12.146;2023-03-21T05:55:44;97601.22;;;6.53;91.74
62025;BME280;47978;49.118;12.146;2023-03-21T05:59:45;97611.38;;;6.58;91.86
62025;BME280;47978;49.118;12.146;2023-03-21T06:03:47;97613.28;;;6.62;92.08
62025;BME280;47978;49.118;12.146;2023-03-21T06:07:48;97609.41;;;6.79;91.61
62025;BME280;47978;49.118;12.146;2023-03-21T06:11:51;97617.34;;;6.95;91.24
62025;BME280;47978;49.118;12.146;2023-03-21T06:15:53;97623.88;;;7.10;90.43
62025;BME280;47978;49.118;12.146;2023-03-21T06:19:55;97615.63;;;7.20;90.16
62025;BME280;47978;49.118;12.146;2023-03-21T06:23:56;97613.56;;;7.46;88.93
62025;BME280;47978;49.118;12.146;2023-03-21T06:27:59;97614.25;;;7.67;88.33
62025;BME280;47978;49.118;12.146;2023-03-21T06:32:00;97623.25;;;7.83;88.02
62025;BME280;47978;49.118;12.146;2023-03-21T06:36:02;97616.16;;;8.11;87.26
62025;BME280;47978;49.118;12.146;2023-03-21T06:40:04;97628.09;;;8.41;86.22
62025;BME280;47978;49.118;12.146;2023-03-21T06:44:06;97625.81;;;8.77;84.95
62025;BME280;47978;49.118;12.146;2023-03-21T06:48:08;97631.41;;;8.96;83.72
62025;BME280;47978;49.118;12.146;2023-03-21T06:52:09;97639.56;;;9.06;83.21
62025;BME280;47978;49.118;12.146;2023-03-21T06:56:11;97629.75;;;9.19;83.23
62025;BME280;47978;49.118;12.146;2023-03-21T07:00:15;97630.63;;;9.38;82.67
62025;BME280;47978;49.118;12.146;2023-03-21T07:04:17;97633.88;;;9.64;81.83
62025;BME280;47978;49.118;12.146;2023-03-21T07:08:18;97626.47;;;10.03;78.13
62025;BME280;47978;49.118;12.146;2023-03-21T07:12:20;97628.09;;;10.42;75.11
62025;BME280;47978;49.118;12.146;2023-03-21T07:16:23;97627.94;;;10.66;72.89
62025;BME280;47978;49.118;12.146;2023-03-21T07:20:25;97621.06;;;11.23;70.91
62025;BME280;47978;49.118;12.146;2023-03-21T07:24:26;97629.97;;;11.76;68.65
62025;BME280;47978;49.118;12.146;2023-03-21T07:28:28;97630.25;;;11.74;62.34
62025;BME280;47978;49.118;12.146;2023-03-21T07:32:32;97629.06;;;11.53;59.90
62025;BME280;47978;49.118;12.146;2023-03-21T07:36:33;97630.56;;;11.86;62.59
62025;BME280;47978;49.118;12.146;2023-03-21T07:40:35;97635.56;;;12.34;61.13
62025;BME280;47978;49.118;12.146;2023-03-21T07:44:40;97632.03;;;12.65;60.96
62025;BME280;47978;49.118;12.146;2023-03-21T07:48:42;97622.06;;;12.87;60.28
62025;BME280;47978;49.118;12.146;2023-03-21T07:52:44;97625.00;;;12.90;60.71
62025;BME280;47978;49.118;12.146;2023-03-21T07:56:45;97626.25;;;13.07;58.62
62025;BME280;47978;49.118;12.146;2023-03-21T08:00:47;97624.53;;;12.97;57.15
62025;BME280;47978;49.118;12.146;2023-03-21T08:04:49;97622.28;;;12.99;57.53
62025;BME280;47978;49.118;12.146;2023-03-21T08:08:51;97616.53;;;12.64;58.19
62025;BME280;47978;49.118;12.146;2023-03-21T08:12:52;97623.66;;;12.34;58.41
62025;BME280;47978;49.118;12.146;2023-03-21T08:16:54;97618.91;;;12.57;59.04
62025;BME280;47978;49.118;12.146;2023-03-21T08:20:57;97623.59;;;12.70;58.75
62025;BME280;47978;49.118;12.146;2023-03-21T08:24:58;97614.41;;;12.38;58.36
62025;BME280;47978;49.118;12.146;2023-03-21T08:28:59;97606.56;;;12.63;59.17
62025;BME280;47978;49.118;12.146;2023-03-21T08:33:01;97610.31;;;12.90;59.20
62025;BME280;47978;49.118;12.146;2023-03-21T08:37:03;97609.44;;;12.80;59.78
62025;BME280;47978;49.118;12.146;2023-03-21T08:41:05;97613.41;;;12.88;59.06
62025;BME280;47978;49.118;12.146;2023-03-21T08:45:07;97606.28;;;13.27;57.22
62025;BME280;47978;49.118;12.146;2023-03-21T08:49:08;97608.97;;;13.49;54.78
62025;BME280;47978;49.118;12.146;2023-03-21T08:53:11;97606.47;;;12.77;54.73
62025;BME280;47978;49.118;12.146;2023-03-21T08:57:13;97601.84;;;12.95;55.07
62025;BME280;47978;49.118;12.146;2023-03-21T09:01:14;97604.06;;;13.15;53.77
62025;BME280;47978;49.118;12.146;2023-03-21T09:05:16;97603.91;;;13.20;53.56
62025;BME280;47978;49.118;12.146;2023-03-21T09:09:19;97603.06;;;13.11;53.46
62025;BME280;47978;49.118;12.146;2023-03-21T09:13:20;97600.78;;;13.53;53.86
62025;BME280;47978;49.118;12.146;2023-03-21T09:17:22;97593.00;;;13.72;50.20
62025;BME280;47978;49.118;12.146;2023-03-21T09:21:23;97590.56;;;13.88;50.10
62025;BME280;47978;49.118;12.146;2023-03-21T09:25:26;97588.44;;;14.03;50.39
62025;BME280;47978;49.118;12.146;2023-03-21T09:29:28;97573.25;;;14.26;50.28
62025;BME280;47978;49.118;12.146;2023-03-21T09:33:29;97574.22;;;14.04;50.52
62025;BME280;47978;49.118;12.146;2023-03-21T09:37:31;97569.63;;;14.26;50.37
62025;BME280;47978;49.118;12.146;2023-03-21T09:41:46;97571.13;;;14.23;50.09
62025;BME280;47978;49.118;12.146;2023-03-21T09:45:50;97575.69;;;14.19;52.09
62025;BME280;47978;49.118;12.146;2023-03-21T09:49:54;97565.69;;;14.35;51.61
62025;BME280;47978;49.118;12.146;2023-03-21T09:54:16;97572.06;;;14.36;49.71
62025;BME280;47978;49.118;12.146;2023-03-21T09:58:22;97564.41;;;14.33;48.30
62025;BME280;47978;49.118;12.146;2023-03-21T10:02:34;97571.28;;;14.18;46.10
62025;BME280;47978;49.118;12.146;2023-03-21T10:06:36;97561.78;;;14.10;47.06
62025;BME280;47978;49.118;12.146;2023-03-21T10:10:42;97562.13;;;14.17;47.49
62025;BME280;47978;49.118;12.146;2023-03-21T10:14:47;97557.38;;;13.92;48.16
62025;BME280;47978;49.118;12.146;2023-03-21T10:18:50;97559.00;;;14.02;47.31
62025;BME280;47978;49.118;12.146;2023-03-21T10:22:52;97546.72;;;14.20;48.46
62025;BME280;47978;49.118;12.146;2023-03-21T10:26:54;97538.88;;;14.31;45.45
62025;BME280;47978;49.118;12.146;2023-03-21T10:30:58;97535.91;;;14.36;46.04
62025;BME280;47978;49.118;12.146;2023-03-21T10:35:01;97533.00;;;14.24;44.98
62025;BME280;47978;49.118;12.146;2023-03-21T10:39:03;97534.13;;;14.05;47.36
62025;BME280;47978;49.118;12.146;2023-03-21T10:43:19;97529.06;;;14.16;47.40
62025;BME280;47978;49.118;12.146;2023-03-21T10:47:23;97533.28;;;14.31;46.26
62025;BME280;47978;49.118;12.146;2023-03-21T10:51:26;97523.69;;;14.02;46.60
62025;BME280;47978;49.118;12.146;2023-03-21T10:55:28;97524.16;;;14.13;48.00
62025;BME280;47978;49.118;12.146;2023-03-21T10:59:33;97519.25;;;14.18;47.93
62025;BME280;47978;49.118;12.146;2023-03-21T11:03:37;97510.38;;;14.43;48.84
62025;BME280;47978;49.118;12.146;2023-03-21T11:07:39;97515.59;;;14.61;48.33
62025;BME280;47978;49.118;12.146;2023-03-21T11:11:42;97503.16;;;14.50;48.04
62025;BME280;47978;49.118;12.146;2023-03-21T11:15:51;97498.41;;;14.42;47.30
62025;BME280;47978;49.118;12.146;2023-03-21T11:19:56;97491.88;;;14.47;48.19
62025;BME280;47978;49.118;12.146;2023-03-21T11:23:58;97495.78;;;14.46;48.46
62025;BME280;47978;49.118;12.146;2023-03-21T11:27:59;97489.75;;;14.52;48.25
62025;BME280;47978;49.118;12.146;2023-03-21T11:32:09;97480.88;;;14.59;48.29
62025;BME280;47978;49.118;12.146;2023-03-21T11:36:30;97471.66;;;14.76;48.86
62025;BME280;47978;49.118;12.146;2023-03-21T11:40:32;97466.09;;;14.76;48.53
62025;BME280;47978;49.118;12.146;2023-03-21T11:44:40;97467.16;;;14.92;48.33
62025;BME280;47978;49.118;12.146;2023-03-21T11:48:44;97469.31;;;14.87;49.48
62025;BME280;47978;49.118;12.146;2023-03-21T11:52:49;97457.47;;;14.98;49.16
62025;BME280;47978;49.118;12.146;2023-03-21T11:56:55;97446.59;;;15.14;48.64
62025;BME280;47978;49.118;12.146;2023-03-21T12:01:02;97432.38;;;15.28;48.84
62025;BME280;47978;49.118;12.146;2023-03-21T12:05:06;97430.50;;;15.41;47.16
62025;BME280;47978;49.118;12.146;2023-03-21T12:09:15;97417.91;;;15.35;47.23
62025;BME280;47978;49.118;12.146;2023-03-21T12:13:27;97414.97;;;15.31;48.83
62025;BME280;47978;49.118;12.146;2023-03-21T12:17:36;97407.94;;;15.55;48.01
62025;BME280;47978;49.118;12.146;2023-03-21T12:21:42;97403.78;;;15.40;47.41
62025;BME280;47978;49.118;12.146;2023-03-21T12:25:49;97400.63;;;15.62;47.79
62025;BME280;47978;49.118;12.146;2023-03-21T12:29:58;97410.09;;;15.49;47.97
62025;BME280;47978;49.118;12.146;2023-03-21T12:34:07;97390.38;;;15.33;47.52
62025;BME280;47978;49.118;12.146;2023-03-21T12:38:14;97387.00;;;15.48;47.66
62025;BME280;47978;49.118;12.146;2023-03-21T12:42:29;97378.03;;;15.43;47.08
62025;BME280;47978;49.118;12.146;2023-03-21T12:46:37;97367.22;;;15.41;47.87
62025;BME280;47978;49.118;12.146;2023-03-21T12:50:40;97381.13;;;15.62;48.52
62025;BME280;47978;49.118;12.146;2023-03-21T12:54:43;97372.84;;;15.53;48.31
62025;BME280;47978;49.118;12.146;2023-03-21T12:58:47;97371.63;;;15.63;49.02
62025;BME280;47978;49.118;12.146;2023-03-21T13:02:50;97361.94;;;15.82;47.54
62025;BME280;47978;49.118;12.146;2023-03-21T13:06:54;97364.81;;;15.73;48.38
62025;BME280;47978;49.118;12.146;2023-03-21T13:10:56;97358.53;;;15.97;49.09
62025;BME280;47978;49.118;12.146;2023-03-21T13:15:05;97355.25;;;15.95;46.94
62025;BME280;47978;49.118;12.146;2023-03-21T13:19:25;97351.75;;;15.86;48.70
62025;BME280;47978;49.118;12.146;2023-03-21T13:23:32;97353.88;;;16.01;47.75
62025;BME280;47978;49.118;12.146;2023-03-21T13:27:35;97349.28;;;15.84;47.37
62025;BME280;47978;49.118;12.146;2023-03-21T13:31:39;97342.63;;;15.77;47.91
62025;BME280;47978;49.118;12.146;2023-03-21T13:35:57;97344.53;;;15.85;48.74
62025;BME280;47978;49.118;12.146;2023-03-21T13:39:59;97325.16;;;16.01;48.21
62025;BME280;47978;49.118;12.146;2023-03-21T13:44:05;97334.13;;;16.18;48.04
62025;BME280;47978;49.118;12.146;2023-03-21T13:48:24;97332.53;;;16.30;48.74
62025;BME280;47978;49.118;12.146;2023-03-21T13:52:27;97318.69;;;16.33;47.88
62025;BME280;47978;49.118;12.146;2023-03-21T13:56:29;97315.66;;;16.26;47.66
62025;BME280;47978;49.118;12.146;2023-03-21T14:00:37;97305.31;;;16.39;47.89
62025;BME280;47978;49.118;12.146;2023-03-21T14:04:41;97308.00;;;16.23;47.08
62025;BME280;47978;49.118;12.146;2023-03-21T14:09:03;97303.81;;;16.29;48.57
62025;BME280;47978;49.118;12.146;2023-03-21T14:13:05;97299.84;;;16.30;48.34
62025;BME280;47978;49.118;12.146;2023-03-21T14:17:10;97292.16;;;16.27;48.41
62025;BME280;47978;49.118;12.146;2023-03-21T14:21:15;97302.88;;;16.25;48.23
62025;BME280;47978;49.118;12.146;2023-03-21T14:25:25;97296.00;;;16.10;49.09
62025;BME280;47978;49.118;12.146;2023-03-21T14:29:44;97285.41;;;16.04;49.34
62025;BME280;47978;49.118;12.146;2023-03-21T14:33:47;97280.28;;;15.93;49.25
62025;BME280;47978;49.118;12.146;2023-03-21T14:37:51;97278.56;;;16.01;50.07
62025;BME280;47978;49.118;12.146;2023-03-21T14:41:54;97266.25;;;16.14;49.26
62025;BME280;47978;49.118;12.146;2023-03-21T14:45:56;97264.03;;;16.32;48.19
62025;BME280;47978;49.118;12.146;2023-03-21T14:49:57;97268.91;;;16.35;49.20
62025;BME280;47978;49.118;12.146;2023-03-21T14:54:00;97268.22;;;16.38;49.34
62025;BME280;47978;49.118;12.146;2023-03-21T14:58:02;97259.63;;;16.44;48.84
62025;BME280;47978;49.118;12.146;2023-03-21T15:02:10;97268.91;;;16.60;48.47
62025;BME280;47978;49.118;12.146;2023-03-21T15:06:16;97252.94;;;16.73;47.60
62025;BME280;47978;49.118;12.146;2023-03-21T15:10:19;97250.03;;;16.94;47.04
62025;BME280;47978;49.118;12.146;2023-03-21T15:14:23;97248.91;;;17.11;47.65
62025;BME280;47978;49.118;12.146;2023-03-21T15:18:25;97253.38;;;16.99;47.65
62025;BME280;47978;49.118;12.146;2023-03-21T15:22:29;97243.41;;;16.86;47.59
62025;BME280;47978;49.118;12.146;2023-03-21T15:26:34;97252.38;;;16.67;47.83
62025;BME280;47978;49.118;12.146;2023-03-21T15:30:35;97249.69;;;16.58;48.48
62025;BME280;47978;49.118;12.146;2023-03-21T15:34:37;97242.97;;;16.47;48.81
62025;BME280;47978;49.118;12.146;2023-03-21T15:38:39;97240.31;;;16.38;48.97
62025;BME280;47978;49.118;12.146;2023-03-21T15:42:43;97242.53;;;16.33;49.39
62025;BME280;47978;49.118;12.146;2023-03-21T15:46:44;97236.72;;;16.26;49.25
62025;BME280;47978;49.118;12.146;2023-03-21T15:50:48;97235.81;;;16.09;49.44
62025;BME280;47978;49.118;12.146;2023-03-21T15:54:51;97233.13;;;16.13;48.94
62025;BME280;47978;49.118;12.146;2023-03-21T15:58:54;97241.72;;;16.08;49.81
62025;BME280;47978;49.118;12.146;2023-03-21T16:02:57;97228.25;;;15.98;50.58
62025;BME280;47978;49.118;12.146;2023-03-21T16:07:00;97235.91;;;16.01;49.81
62025;BME280;47978;49.118;12.146;2023-03-21T16:11:05;97234.63;;;15.86;49.99
62025;BME280;47978;49.118;12.146;2023-03-21T16:15:09;97242.16;;;15.73;50.77
62025;BME280;47978;49.118;12.146;2023-03-21T16:19:10;97248.16;;;15.63;51.94
62025;BME280;47978;49.118;12.146;2023-03-21T16:23:12;97239.03;;;15.41;53.86
62025;BME280;47978;49.118;12.146;2023-03-21T16:27:14;97247.16;;;15.34;56.82
62025;BME280;47978;49.118;12.146;2023-03-21T16:31:18;97243.16;;;15.23;57.72
62025;BME280;47978;49.118;12.146;2023-03-21T16:35:21;97245.44;;;14.88;59.36
62025;BME280;47978;49.118;12.146;2023-03-21T16:39:24;97253.31;;;14.65;60.19
62025;BME280;47978;49.118;12.146;2023-03-21T16:43:26;97257.88;;;14.39;62.04
62025;BME280;47978;49.118;12.146;2023-03-21T16:47:29;97260.13;;;14.16;63.65
62025;BME280;47978;49.118;12.146;2023-03-21T16:51:31;97262.78;;;14.13;63.55
62025;BME280;47978;49.118;12.146;2023-03-21T16:55:32;97264.22;;;13.81;64.89
62025;BME280;47978;49.118;12.146;2023-03-21T16:59:34;97259.38;;;13.60;66.03
62025;BME280;47978;49.118;12.146;2023-03-21T17:03:37;97263.69;;;13.14;67.79
62025;BME280;47978;49.118;12.146;2023-03-21T17:07:38;97269.75;;;12.99;68.86
62025;BME280;47978;49.118;12.146;2023-03-21T17:11:40;97270.75;;;12.86;69.25
62025;BME280;47978;49.118;12.146;2023-03-21T17:15:41;97256.22;;;12.71;69.83
62025;BME280;47978;49.118;12.146;2023-03-21T17:19:44;97269.75;;;12.55;70.43
62025;BME280;47978;49.118;12.146;2023-03-21T17:23:45;97280.31;;;12.27;71.45
62025;BME280;47978;49.118;12.146;2023-03-21T17:27:47;97276.06;;;12.21;71.94
62025;BME280;47978;49.118;12.146;2023-03-21T17:31:48;97275.69;;;12.14;71.95
62025;BME280;47978;49.118;12.146;2023-03-21T17:35:51;97282.59;;;11.85;73.25
62025;BME280;47978;49.118;12.146;2023-03-21T17:39:52;97281.72;;;11.76;73.29
62025;BME280;47978;49.118;12.146;2023-03-21T17:43:54;97284.25;;;11.64;73.73
62025;BME280;47978;49.118;12.146;2023-03-21T17:47:55;97282.22;;;11.47;74.55
62025;BME280;47978;49.118;12.146;2023-03-21T17:51:58;97285.91;;;11.34;74.82
62025;BME280;47978;49.118;12.146;2023-03-21T17:55:59;97293.63;;;11.23;75.55
62025;BME280;47978;49.118;12.146;2023-03-21T18:00:01;97288.50;;;11.08;75.81
62025;BME280;47978;49.118;12.146;2023-03-21T18:04:02;97294.91;;;11.17;75.80
62025;BME280;47978;49.118;12.146;2023-03-21T18:08:05;97297.13;;;10.92;76.61
62025;BME280;47978;49.118;12.146;2023-03-21T18:12:12;97300.34;;;10.86;76.56
62025;BME280;47978;49.118;12.146;2023-03-21T18:16:14;97303.69;;;10.96;76.12
62025;BME280;47978;49.118;12.146;2023-03-21T18:20:16;97304.97;;;10.90;76.27
62025;BME280;47978;49.118;12.146;2023-03-21T18:24:19;97306.41;;;10.88;76.03
62025;BME280;47978;49.118;12.146;2023-03-21T18:28:20;97297.88;;;10.84;76.14
62025;BME280;47978;49.118;12.146;2023-03-21T18:32:22;97301.28;;;10.81;76.63
62025;BME280;47978;49.118;12.146;2023-03-21T18:36:24;97305.19;;;10.80;76.51
62025;BME280;47978;49.118;12.146;2023-03-21T18:40:30;97304.28;;;10.71;76.99
62025;BME280;47978;49.118;12.146;2023-03-21T18:44:31;97302.69;;;10.56;77.37
62025;BME280;47978;49.118;12.146;2023-03-21T18:48:33;97311.50;;;10.44;77.56
62025;BME280;47978;49.118;12.146;2023-03-21T18:52:36;97312.13;;;10.41;78.10
62025;BME280;47978;49.118;12.146;2023-03-21T18:56:39;97310.41;;;10.31;78.35
62025;BME280;47978;49.118;12.146;2023-03-21T19:01:00;97302.94;;;10.32;78.38
62025;BME280;47978;49.118;12.146;2023-03-21T19:05:05;97306.81;;;10.17;78.57
62025;BME280;47978;49.118;12.146;2023-03-21T19:09:07;97303.44;;;10.06;79.08
62025;BME280;47978;49.118;12.146;2023-03-21T19:13:09;97303.25;;;10.03;79.02
62025;BME280;47978;49.118;12.146;2023-03-21T19:17:11;97316.63;;;9.96;79.29
62025;BME280;47978;49.118;12.146;2023-03-21T19:21:32;97316.00;;;9.99;79.31
62025;BME280;47978;49.118;12.146;2023-03-21T19:25:34;97314.91;;;10.00;79.62
62025;BME280;47978;49.118;12.146;2023-03-21T19:29:37;97321.84;;;9.97;79.96
62025;BME280;47978;49.118;12.146;2023-03-21T19:33:38;97324.63;;;9.97;79.83
62025;BME280;47978;49.118;12.146;2023-03-21T19:37:39;97327.38;;;9.97;79.90
62025;BME280;47978;49.118;12.146;2023-03-21T19:41:41;97328.41;;;10.01;80.07
62025;BME280;47978;49.118;12.146;2023-03-21T19:45:46;97328.78;;;9.81;81.09
62025;BME280;47978;49.118;12.146;2023-03-21T19:49:47;97322.75;;;9.79;81.07
62025;BME280;47978;49.118;12.146;2023-03-21T19:54:09;97322.03;;;9.87;81.00
62025;BME280;47978;49.118;12.146;2023-03-21T19:58:10;97308.66;;;9.94;80.66
62025;BME280;47978;49.118;12.146;2023-03-21T20:02:13;97313.38;;;9.94;80.65
62025;BME280;47978;49.118;12.146;2023-03-21T20:06:34;97322.03;;;9.87;80.72
62025;BME280;47978;49.118;12.146;2023-03-21T20:10:36;97324.41;;;9.80;81.41
62025;BME280;47978;49.118;12.146;2023-03-21T20:14:37;97322.16;;;9.82;81.76
62025;BME280;47978;49.118;12.146;2023-03-21T20:18:40;97327.88;;;9.85;81.67
62025;BME280;47978;49.118;12.146;2023-03-21T20:22:42;97319.81;;;9.89;82.13
62025;BME280;47978;49.118;12.146;2023-03-21T20:27:03;97314.19;;;9.80;82.84
62025;BME280;47978;49.118;12.146;2023-03-21T20:31:05;97321.94;;;9.78;83.24
62025;BME280;47978;49.118;12.146;2023-03-21T20:35:08;97317.22;;;9.65;83.76
62025;BME280;47978;49.118;12.146;2023-03-21T20:39:21;97313.75;;;9.59;84.07
62025;BME280;47978;49.118;12.146;2023-03-21T20:43:22;97320.56;;;9.48;84.16
62025;BME280;47978;49.118;12.146;2023-03-21T20:47:44;97322.94;;;9.55;83.87
62025;BME280;47978;49.118;12.146;2023-03-21T20:51:46;97319.19;;;9.32;84.62
62025;BME280;47978;49.118;12.146;2023-03-21T20:56:08;97323.03;;;9.17;85.07
62025;BME280;47978;49.118;12.146;2023-03-21T21:00:10;97314.63;;;9.08;85.39
62025;BME280;47978;49.118;12.146;2023-03-21T21:04:11;97315.66;;;9.12;85.21
62025;BME280;47978;49.118;12.146;2023-03-21T21:08:16;97318.41;;;9.12;85.16
62025;BME280;47978;49.118;12.146;2023-03-21T21:12:18;97326.09;;;9.15;84.80
62025;BME280;47978;49.118;12.146;2023-03-21T21:16:19;97326.16;;;9.10;85.01
62025;BME280;47978;49.118;12.146;2023-03-21T21:20:21;97327.28;;;9.09;85.11
62025;BME280;47978;49.118;12.146;2023-03-21T21:24:24;97330.50;;;8.97;85.38
62025;BME280;47978;49.118;12.146;2023-03-21T21:28:25;97334.31;;;9.01;85.83
62025;BME280;47978;49.118;12.146;2023-03-21T21:32:27;97331.94;;;8.95;85.22
62025;BME280;47978;49.118;12.146;2023-03-21T21:36:29;97321.97;;;8.80;86.16